Classificació: 11a 24 Hores del CdC: MINI Ordre Arribada

DORSAL HORA TEMPS CATEGORIA POSICIO NOM
3012 10:19:56 2:15:56 MINI 1 PERE LOPEZ CASTILLO
3109 10:20:01 2:20:01 MINI 2 DAVID ALSINA FAJARDO
3042 10:21:19 2:21:19 MINI 3 PAU SANCHEZ FRANCISCO
3090 10:30:47 2:30:47 MINI 4 HELIO LÓPEZ CASTILLO
3028 10:34:45 2:34:45 MINI 5 JACINT CAROL BRUGUERA
3094 10:39:10 2:39:10 MINI 6 FRANCISCO BELLIDO NOUVILLAS
3092 10:39:11 2:39:11 MINI 7 ALEX SORIANO FAIXÒ
3127 10:45:53 2:45:53 MINI 8 GUILLEM PUIG JUNYENT
3104 10:46:50 2:46:50 MINI 9 DAVID HERNANDO ROURA
3063 10:51:53 2:51:53 MINI 10 GENÍS SALA REAL
3068 10:52:39 2:52:39 MINI 11 MARC FONT VERGÉS
3058 10:56:42 2:56:42 MINI 12 RAFAEL MIRALLES SAGRERA
3062 10:58:08 2:58:08 MINI 13 FERRAN FONTDECABA FERNANDEZ
3112 11:00:49 3:00:49 MINI 14 TOMÀS LLORENS MARÈS
3115 11:04:31 3:04:31 MINI 15 GUIM  HOSTA I FAUS
3122 11:04:36 3:04:36 MINI 16 XAVIER PALANQUES RODRIGUEZ
3034 11:06:45 3:06:45 MINI 17 DION MUÑOZ
3136 11:08:30 3:08:30 MINI 18 LAIA CUEVAS MARTÍ
3081 11:08:31 3:08:31 MINI 19 JORDI GARRIDO
3070 11:09:34 3:09:34 MINI 20 MIQUEL PASTOR FARRE
3095 11:12:12 3:12:12 MINI 21 DAVID DE MIGUEL SÁNCHEZ
3031 11:12:27 3:12:27 MINI 22 XAVI OLIVA MARTÍNEZ
3069 11:14:47 3:14:47 MINI 23 MARC CAROL BRUGUERA
3110 11:19:31 3:19:31 MINI 24 WOLFRANDO JUAN
3118 11:20:25 3:20:25 MINI 25 JOAN MALLOL BATALLER
3080 11:20:37 3:20:37 MINI 26 ROBERTO  BUENO
3097 11:22:34 3:22:34 MINI 27 CRISTIAN GARCÍA REYES
3032 11:26:12 3:26:12 MINI 28 ALBERT TATJÉ MASRAMON
3131 11:27:59 3:27:59 MINI 29 MIREIA TRIAS AYALA
3114 11:28:13 3:28:13 MINI 30 JORDI VALSELLS
3048 11:28:20 3:28:20 MINI 31 ELI SOLANICH SUCARRATS
3103 11:28:23 3:28:23 MINI 32 PATRICIA SERRATO DE TENA
3132 11:30:04 3:30:04 MINI 33 DANIEL FRANCISCO PEREZ PEREZ
3005 11:30:09 3:30:09 MINI 34 LLUIS ARAGONES MARIMON
3075 11:30:39 3:30:39 MINI 35 JOAN GÜELL SOLA
3021 11:32:33 3:32:33 MINI 36 COURCOL THIERRY
3047 11:35:07 3:35:07 MINI 37 SERGI PALANQUES RODRIGUEZ
3123 11:36:52 3:36:52 MINI 38 NÚRIA GABERNET I DÍAZ
3054 11:36:59 3:36:59 MINI 39 VICENTE MARTÍNEZ GONZÁLEZ
3129 11:38:03 3:38:03 MINI 40 ERIC MUÑOZ SORIA
3007 11:41:03 3:41:03 MINI 41 MARIA CARRILLO CAMPS
3067 11:41:17 3:41:17 MINI 42 XAVI GARGALLO MOMPÓ
3073 11:41:30 3:41:30 MINI 43 ELISABET AMAT GUASCH
3074 11:41:32 3:41:32 MINI 44 SENDOA FLÓREZ PALACIO
3126 11:45:56 3:45:56 MINI 45 DAVID  CARDOSO MESAS
3111 11:46:13 3:46:13 MINI 46 BRYAN JUAN
3093 11:48:20 3:48:20 MINI 47 JORDI TRIADU RODRIGUEZ
3099 11:48:50 3:48:50 MINI 48 XAVI AGUSTI CANALS
3061 11:49:43 3:49:43 MINI 49 ARSENI  VILLAR PÉREZ
3105 11:51:16 3:51:16 MINI 50 DESIRÉE SERRA CATALAN
3040 11:52:27 3:52:27 MINI 51 CRISTINA DE CANALS JIMENEZ
3041 11:52:27 3:52:27 MINI 52 ESTER VILLAR COLOMÉ
3033 11:52:30 3:52:30 MINI 53 ROSA LIZANDRA CRESPI
3039 11:53:14 3:53:14 MINI 54 XAVI CALVETE HIDALGO
3025 11:56:13 3:56:13 MINI 55 ARANTXA BARNES SANCHEZ
3014 12:01:27 4:01:27 MINI 56 MICHEL HOTAT
3020 12:05:38 4:05:38 MINI 57 JORDI DE JESUS
3106 12:12:45 4:12:45 MINI 58 JOAN MARANGES MALLOL
3001 12:26:00 4:26:00 MINI 59 INMA ESTRUCH PAREDES
3072 12:30:13 4:30:13 MINI 60 ELIA NOGUERA GINESTA
3056 12:38:02 4:38:02 MINI 61 AGNÈS FIGUERES FERRER
3057 12:38:09 4:38:09 MINI 62 IVAN PULIDO PRAT
3107 12:38:51 4:38:51 MINI 63 NURIA VIDIELLA CEREZUELA
3108 12:38:57 4:38:57 MINI 64 AURELI MARTINEZ BUCHACA
3077 12:38:58 4:38:58 MINI 65 JUAN JOSÉ SERRÁN PASCUAL
3003 12:47:37 4:47:37 MINI 66 LAIA PONS RICO
3022 12:47:42 4:47:42 MINI 67 DAVID VIA SEGURA
3113 12:51:16 4:51:16 MINI 68 ORIOL VALSELLS GOULA
3078 12:51:19 4:51:19 MINI 69 JESSICA SERRAN BAEZ
3016 12:58:05 4:58:05 MINI 70 CRISTINA MUÑOZ GENÍS
3086 13:07:10 5:07:10 MINI 71 MIKEL ASIAN TORRES
3087 13:07:30 5:07:30 MINI 72 EDUARDO  SALA USUA
3119 13:09:41 5:09:41 MINI 73 SARA PAZOS
3120 13:09:43 5:09:43 MINI 74 BREOGAN LEMA
3002 13:10:21 5:10:21 MINI 75 FRANCESC FERNÁNDEZ BENÍTEZ
3029 13:14:01 5:14:01 MINI 76 JUAN PÉREZ GUILLÉN
3018 13:19:59 5:19:59 MINI 77 JOSEP MARIA SAUMELL OLIVELLA
3015 13:20:03 5:20:03 MINI 78 ESTHER LLUCH VALLÈS
3133 13:21:25 5:21:25 MINI 79 RODOLFO  SALAZAR HIDALGO
3096 13:21:29 5:21:29 MINI 80 LEYRE CONTRERAS MARTÍNEZ
3030 13:27:39 5:27:39 MINI 81 NÚRIA PARÉS
3066 13:35:21 5:35:21 MINI 82 MARIA VILLAR LAGUNA
3008 13:35:30 5:35:30 MINI 83 HENRIETTE MALLOL
3065 13:35:31 5:35:31 MINI 84 MARTA GARCIA BERTRAN
3079 13:35:44 5:35:44 MINI 85 ANA COROBA GUERRA
3089 13:35:45 5:35:45 MINI 86 NATALYA FARAONOVA
3006 13:39:57 5:39:57 MINI 87 PERE GELI FERRER
3045 13:41:45 5:41:45 MINI 88 SILVESTRE BARRIO SAURA
3055 13:45:33 5:45:33 MINI 89 MONTSE MENCION SITJA
3049 13:45:34 5:45:34 MINI 90 IMMA DOLCET RIBES
3137 13:47:55 5:47:55 MINI 91 JOANA REDONDO BOADA
3059 13:47:57 5:47:57 MINI 92 MARÍA RIVERA LÓPEZ
3035 13:48:15 5:48:15 MINI 93 CARLES BADIA
3026 13:48:16 5:48:16 MINI 94 ALBERTO MERINO PALOMAR
3052 13:51:15 5:51:15 MINI 95 RICARD VENTURA ROS
3051 13:51:40 5:51:40 MINI 96 ANNA CORTIJO I GUITART
3091 13:55:29 5:55:29 MINI 97 MONTSE SALVAT BALAGUER
3076 13:55:42 5:55:42 MINI 98 CRISTINA GARCÍA CLARET
3130 13:59:27 5:59:27 MINI 99 BLANCA  MONTANER SANCHO
3027 13:59:36 5:59:36 MINI 100 CARLA BADIA SANCHO
3043 14:00:49 6:00:49 MINI 101 JESUS CEREZA ZORRILLA
3044 14:01:01 6:01:01 MINI 102 CARME  SABATE RIBES
3085 14:01:24 6:01:24 MINI 103 JAVIER CLAVER
3088 14:01:56 6:01:56 MINI 104 SERGI NOLLA JOAN
3071 14:01:58 6:01:58 MINI 105 ANNA ALCALA BERRUEZO
3100 14:02:19 6:02:19 MINI 106 FREDDY HENRY VAES
3116 14:02:51 6:02:51 MINI 107 MARTI CANO RIERA
3117 14:02:55 6:02:55 MINI 108 NURIA CANO MIGUEL
3004 14:03:17 6:03:17 MINI 109 PILAR FRANCÉS GARCÍA
3038 14:23:26 6:23:26 MINI 110 ISABEL HERNANDEZ MUÑOZ
3098 14:26:39 6:26:39 MINI 111 ALEX SIESO SEGURA
3082 14:26:51 6:26:51 MINI 112 TONI SIESO MAQUEDA
3125 14:28:41 6:28:41 MINI 113 MARTA BAUTISTA
3084 14:29:31 6:29:31 MINI 114 KEVIN PUERTAS
3083 14:29:39 6:29:39 MINI 115 IVET  SIESO
3101 14:30:02 6:30:02 MINI 116 MAYRA SEGURA UBIERGO
3046 14:33:00 6:33:00 MINI 117 MANUEL JAIME
3009 14:36:49 6:36:49 MINI 118 ENCARNA PENA GOMEZ
3010 14:36:59 6:36:59 MINI 119 ALBERT GARCIA LLUNELL
3023 15:02:53 7:02:53 MINI 120 ESTEVE BAS PIBERNAT
3024 15:03:08 7:03:08 MINI 121 NEUS SEGURA RIU
Anuncis

Deixa un comentari

Fill in your details below or click an icon to log in:

WordPress.com Logo

Esteu comentant fent servir el compte WordPress.com. Log Out / Canvia )

Twitter picture

Esteu comentant fent servir el compte Twitter. Log Out / Canvia )

Facebook photo

Esteu comentant fent servir el compte Facebook. Log Out / Canvia )

Google+ photo

Esteu comentant fent servir el compte Google+. Log Out / Canvia )

Connecting to %s